createdAt,value
2017-09-27T00:00:47.440Z,83.42
2017-09-27T00:03:15.057Z,83.59
2017-09-27T00:05:42.699Z,83.72
2017-09-27T00:08:10.322Z,83.83
2017-09-27T00:10:37.909Z,84.21
2017-09-27T00:13:05.557Z,84.34
2017-09-27T00:15:33.158Z,84.40
2017-09-27T00:18:00.762Z,84.68
2017-09-27T00:20:29.830Z,84.85
2017-09-27T00:22:57.640Z,84.75
2017-09-27T00:25:25.244Z,84.83
2017-09-27T00:27:52.963Z,85.09
2017-09-27T00:30:20.616Z,85.38
2017-09-27T00:32:48.366Z,85.55
2017-09-27T00:35:16.030Z,85.97
2017-09-27T00:37:43.628Z,85.98
2017-09-27T00:40:11.252Z,86.14
2017-09-27T00:42:38.921Z,86.37
2017-09-27T00:45:06.526Z,86.79
2017-09-27T00:47:34.191Z,87.18
2017-09-27T00:50:01.797Z,87.50
2017-09-27T00:52:29.387Z,87.79
2017-09-27T00:54:57.003Z,87.75
2017-09-27T00:57:24.608Z,87.65
2017-09-27T00:59:52.253Z,87.76
2017-09-27T01:02:19.880Z,87.94
2017-09-27T01:04:47.512Z,88.17
2017-09-27T01:07:15.464Z,88.71
2017-09-27T01:09:43.072Z,88.85
2017-09-27T01:12:10.726Z,88.97
2017-09-27T01:14:38.316Z,88.38
2017-09-27T01:17:05.929Z,88.27
2017-09-27T01:19:33.554Z,88.48
2017-09-27T01:22:01.163Z,88.50
2017-09-27T01:24:28.796Z,88.21
2017-09-27T01:26:56.668Z,88.30
2017-09-27T01:29:24.287Z,87.72
2017-09-27T01:31:51.950Z,87.74
2017-09-27T01:34:19.552Z,87.59
2017-09-27T01:36:47.531Z,87.33
2017-09-27T01:39:15.396Z,87.42
2017-09-27T01:41:43.002Z,87.52
2017-09-27T01:44:10.623Z,87.32
2017-09-27T01:46:38.235Z,87.61
2017-09-27T01:49:05.957Z,87.56
2017-09-27T01:51:33.600Z,87.81
2017-09-27T01:54:01.215Z,87.77
2017-09-27T01:56:28.863Z,87.52
2017-09-27T01:58:56.470Z,87.53
2017-09-27T02:01:24.130Z,87.60
2017-09-27T02:03:51.748Z,87.44
2017-09-27T02:06:19.333Z,87.03
2017-09-27T02:08:46.952Z,87.32
2017-09-27T02:11:14.552Z,87.68
2017-09-27T02:13:42.204Z,87.88
2017-09-27T02:16:09.811Z,87.85
2017-09-27T02:18:37.413Z,87.64
2017-09-27T02:21:05.050Z,87.62
2017-09-27T02:23:32.754Z,87.55
2017-09-27T02:26:00.395Z,87.83
2017-09-27T02:28:27.995Z,87.98
2017-09-27T02:30:55.608Z,88.12
2017-09-27T02:33:23.256Z,88.47
2017-09-27T02:35:50.855Z,88.35
2017-09-27T02:38:18.503Z,88.35
2017-09-27T02:40:46.104Z,88.66
2017-09-27T02:43:13.695Z,88.82
2017-09-27T02:45:41.320Z,88.71
2017-09-27T02:48:08.948Z,88.26
2017-09-27T02:50:36.603Z,87.82
2017-09-27T02:53:04.198Z,88.08
2017-09-27T02:55:31.789Z,87.79
2017-09-27T02:57:59.415Z,87.83
2017-09-27T03:00:27.012Z,88.20
2017-09-27T03:02:54.644Z,88.09
2017-09-27T03:05:22.602Z,87.98
2017-09-27T03:07:50.221Z,87.91
2017-09-27T03:10:17.833Z,88.15
2017-09-27T03:12:45.436Z,88.18
2017-09-27T03:15:13.052Z,88.06
2017-09-27T03:17:40.662Z,88.06
2017-09-27T03:20:08.249Z,87.95
2017-09-27T03:22:35.906Z,88.19
2017-09-27T03:25:03.500Z,88.02
2017-09-27T03:27:31.161Z,88.17
2017-09-27T03:29:58.765Z,87.83
2017-09-27T03:32:26.352Z,87.56
2017-09-27T03:34:53.978Z,87.46
2017-09-27T03:37:21.571Z,87.29
2017-09-27T03:39:49.212Z,87.58
2017-09-27T03:42:16.817Z,87.52
2017-09-27T03:44:44.424Z,87.45
2017-09-27T03:47:12.048Z,87.35
2017-09-27T03:49:39.688Z,87.35
2017-09-27T03:52:07.360Z,87.45
2017-09-27T03:54:34.982Z,87.63
2017-09-27T03:57:02.555Z,87.58
2017-09-27T03:59:30.180Z,87.53
2017-09-27T04:01:57.812Z,87.49
2017-09-27T04:04:25.443Z,87.87
2017-09-27T04:06:53.052Z,87.94
2017-09-27T04:09:20.643Z,87.81
2017-09-27T04:11:48.254Z,87.96
2017-09-27T04:14:15.854Z,88.30
2017-09-27T04:16:43.484Z,88.24
2017-09-27T04:19:11.107Z,88.40
2017-09-27T04:21:39.018Z,88.46
2017-09-27T04:24:06.682Z,88.19
2017-09-27T04:26:34.548Z,88.12
2017-09-27T04:29:02.187Z,87.99
2017-09-27T04:31:29.783Z,88.16
2017-09-27T04:33:57.401Z,88.20
2017-09-27T04:36:25.050Z,87.86
2017-09-27T04:38:52.635Z,88.06
2017-09-27T04:41:20.289Z,88.40
2017-09-27T04:43:47.885Z,88.09
2017-09-27T04:46:15.487Z,87.65
2017-09-27T04:48:43.120Z,87.58
2017-09-27T04:51:10.716Z,87.88
2017-09-27T04:53:38.353Z,87.69
2017-09-27T04:56:05.941Z,87.68
2017-09-27T04:58:33.550Z,87.79
2017-09-27T05:01:01.181Z,87.84
2017-09-27T05:03:28.775Z,87.80
2017-09-27T05:05:56.408Z,87.60
2017-09-27T05:08:24.012Z,87.71
2017-09-27T05:10:51.965Z,87.88
2017-09-27T05:13:19.937Z,87.66
2017-09-27T05:15:47.559Z,87.49
2017-09-27T05:18:15.188Z,87.64
2017-09-27T05:20:42.783Z,87.62
2017-09-27T05:23:10.366Z,87.64
2017-09-27T05:25:37.983Z,87.74
2017-09-27T05:28:05.587Z,87.81
2017-09-27T05:30:33.272Z,87.95
2017-09-27T05:33:00.869Z,87.13
2017-09-27T05:35:28.464Z,87.05
2017-09-27T05:37:56.090Z,87.12
2017-09-27T05:40:24.027Z,87.36
2017-09-27T05:42:51.665Z,87.42
2017-09-27T05:45:19.248Z,87.34
2017-09-27T05:47:46.843Z,87.07
2017-09-27T05:50:14.472Z,87.03
2017-09-27T05:52:42.069Z,87.10
2017-09-27T05:55:09.707Z,86.97
2017-09-27T05:57:37.357Z,86.87
2017-09-27T06:00:04.977Z,87.00
2017-09-27T06:02:32.627Z,87.02
2017-09-27T06:05:00.232Z,86.86
2017-09-27T06:07:27.918Z,87.18
2017-09-27T06:09:55.524Z,87.00
2017-09-27T06:12:23.435Z,86.81
2017-09-27T06:14:51.057Z,86.70
2017-09-27T06:17:18.663Z,86.72
2017-09-27T06:19:46.318Z,86.71
2017-09-27T06:22:13.923Z,86.78
2017-09-27T06:24:41.504Z,86.95
2017-09-27T06:27:09.128Z,86.58
2017-09-27T06:29:37.080Z,86.64
2017-09-27T06:32:04.744Z,86.79
2017-09-27T06:34:32.341Z,87.02
2017-09-27T06:37:00.275Z,86.88
2017-09-27T06:39:27.909Z,86.49
2017-09-27T06:41:55.512Z,86.91
2017-09-27T06:44:23.165Z,86.52
2017-09-27T06:46:50.792Z,86.72
2017-09-27T06:49:18.387Z,86.66
2017-09-27T06:51:46.000Z,86.36
2017-09-27T06:54:13.683Z,86.51
2017-09-27T06:56:41.297Z,86.29
2017-09-27T06:59:09.241Z,86.14
2017-09-27T07:01:36.828Z,86.69
2017-09-27T07:04:04.428Z,86.79
2017-09-27T07:06:32.128Z,86.54
2017-09-27T07:08:59.730Z,86.31
2017-09-27T07:11:27.369Z,86.12
2017-09-27T07:13:55.232Z,86.20
2017-09-27T07:16:22.817Z,86.39
2017-09-27T07:18:50.459Z,86.48
2017-09-27T07:21:18.057Z,86.29
2017-09-27T07:23:46.414Z,85.79
2017-09-27T07:26:14.015Z,85.82
2017-09-27T07:28:41.620Z,85.75
2017-09-27T07:31:09.264Z,85.53
2017-09-27T07:33:37.148Z,85.99
2017-09-27T07:36:04.804Z,85.74
2017-09-27T07:38:32.398Z,85.82
2017-09-27T07:41:00.039Z,86.01
2017-09-27T07:43:27.690Z,86.12
2017-09-27T07:45:55.293Z,85.70
2017-09-27T07:48:22.940Z,85.57
2017-09-27T07:50:50.891Z,85.34
2017-09-27T07:53:18.505Z,85.13
2017-09-27T07:55:47.474Z,85.16
2017-09-27T07:58:15.105Z,84.93
2017-09-27T08:00:42.771Z,84.82
2017-09-27T08:03:10.372Z,84.66
2017-09-27T08:05:37.982Z,84.67
2017-09-27T08:08:05.608Z,84.84
2017-09-27T08:10:33.216Z,84.72
2017-09-27T08:13:00.873Z,84.67
2017-09-27T08:15:28.499Z,84.71
2017-09-27T08:17:56.100Z,84.91
2017-09-27T08:20:24.074Z,85.09
2017-09-27T08:22:51.678Z,85.05
2017-09-27T08:25:19.390Z,84.97
2017-09-27T08:27:46.990Z,85.14
2017-09-27T08:30:14.600Z,85.35
2017-09-27T08:32:42.230Z,85.30
2017-09-27T08:35:09.875Z,85.27
2017-09-27T08:37:37.504Z,85.32
2017-09-27T08:40:05.122Z,85.21
2017-09-27T08:42:32.709Z,85.52
2017-09-27T08:45:00.355Z,85.26
2017-09-27T08:47:27.957Z,85.21
2017-09-27T08:49:55.594Z,85.45
2017-09-27T08:52:23.213Z,85.33
2017-09-27T08:54:50.820Z,85.76
2017-09-27T08:57:18.708Z,85.49
2017-09-27T08:59:46.306Z,85.42
2017-09-27T09:02:14.241Z,85.82
2017-09-27T09:04:41.846Z,85.52
2017-09-27T09:07:09.436Z,84.93
2017-09-27T09:09:37.341Z,84.37
2017-09-27T09:12:04.940Z,83.86
2017-09-27T09:14:32.609Z,83.52
2017-09-27T09:17:00.525Z,83.14
2017-09-27T09:19:28.132Z,83.16
2017-09-27T09:21:55.772Z,83.11
2017-09-27T09:24:23.359Z,82.77
2017-09-27T09:26:51.343Z,82.56
2017-09-27T09:29:19.763Z,82.44
2017-09-27T09:31:47.367Z,81.61
2017-09-27T09:34:15.402Z,81.64
2017-09-27T09:36:42.993Z,81.32
2017-09-27T09:39:10.688Z,80.39
2017-09-27T09:41:38.293Z,80.43
2017-09-27T09:44:05.900Z,79.80
2017-09-27T09:46:33.540Z,78.79
2017-09-27T09:49:01.142Z,77.96
2017-09-27T09:51:28.788Z,77.56
2017-09-27T09:53:56.398Z,77.68
2017-09-27T09:56:24.010Z,77.71
2017-09-27T09:58:51.925Z,77.91
2017-09-27T10:01:19.519Z,77.99
2017-09-27T10:03:48.739Z,77.74
2017-09-27T10:06:16.480Z,77.49
2017-09-27T10:08:44.138Z,77.85
2017-09-27T10:11:11.759Z,77.36
2017-09-27T10:13:39.363Z,77.38
2017-09-27T10:16:07.001Z,76.59
2017-09-27T10:18:34.603Z,75.77
2017-09-27T10:21:02.529Z,75.32
2017-09-27T10:23:30.155Z,75.52
2017-09-27T10:25:57.746Z,75.05
2017-09-27T10:28:25.383Z,76.10
2017-09-27T10:30:52.980Z,76.32
2017-09-27T10:33:20.582Z,76.49
2017-09-27T10:35:48.201Z,76.50
2017-09-27T10:38:15.853Z,76.59
2017-09-27T10:40:44.021Z,76.66
2017-09-27T10:43:13.051Z,76.73
2017-09-27T10:45:40.816Z,77.08
2017-09-27T10:48:08.425Z,77.47
2017-09-27T10:50:36.456Z,77.59
2017-09-27T10:53:06.070Z,77.41
2017-09-27T10:55:33.929Z,77.48
2017-09-27T10:58:01.714Z,77.71
2017-09-27T11:00:31.169Z,77.13
2017-09-27T11:02:59.307Z,76.43
2017-09-27T11:05:28.569Z,76.22
2017-09-27T11:07:56.733Z,75.51
2017-09-27T11:10:24.330Z,75.28
2017-09-27T11:12:52.789Z,75.67
2017-09-27T11:15:20.395Z,74.75
2017-09-27T11:17:48.300Z,74.73
2017-09-27T11:20:15.903Z,74.19
2017-09-27T11:22:43.519Z,73.25
2017-09-27T11:25:11.155Z,73.42
2017-09-27T11:27:38.749Z,74.00
2017-09-27T11:30:06.376Z,74.58
2017-09-27T11:32:33.988Z,74.23
2017-09-27T11:35:01.851Z,74.41
2017-09-27T11:37:29.718Z,73.93
2017-09-27T11:39:57.604Z,73.94
2017-09-27T11:42:25.246Z,73.81
2017-09-27T11:44:52.826Z,74.16
2017-09-27T11:47:20.551Z,74.45
2017-09-27T11:49:48.449Z,73.73
2017-09-27T11:52:16.053Z,74.03
2017-09-27T11:54:43.775Z,74.21
2017-09-27T11:57:11.769Z,73.61
2017-09-27T11:59:39.708Z,72.29
2017-09-27T12:02:07.781Z,70.80
2017-09-27T12:04:35.415Z,68.57
2017-09-27T12:07:03.054Z,65.73
2017-09-27T12:09:30.667Z,64.11
2017-09-27T12:11:58.259Z,65.48
2017-09-27T12:14:25.886Z,66.73
2017-09-27T12:16:53.484Z,68.25
2017-09-27T12:19:21.142Z,69.52
2017-09-27T12:21:48.744Z,66.88
2017-09-27T12:24:16.440Z,64.26
2017-09-27T12:26:44.056Z,64.11
2017-09-27T12:29:11.665Z,64.48
2017-09-27T12:31:40.665Z,64.16
2017-09-27T12:34:08.284Z,65.11
2017-09-27T12:36:36.290Z,65.86
2017-09-27T12:39:03.949Z,66.63
2017-09-27T12:41:31.584Z,67.04
2017-09-27T12:43:59.221Z,68.04
2017-09-27T12:46:27.250Z,68.25
2017-09-27T12:48:54.958Z,69.02
2017-09-27T12:51:22.877Z,69.85
2017-09-27T12:53:50.525Z,70.31
2017-09-27T12:56:18.154Z,70.15
2017-09-27T12:58:45.774Z,69.70
2017-09-27T13:01:13.418Z,69.39
2017-09-27T13:03:41.053Z,70.28
2017-09-27T13:06:08.656Z,70.28
2017-09-27T13:08:36.295Z,70.80
2017-09-27T13:11:03.896Z,70.28
2017-09-27T13:13:31.520Z,70.73
2017-09-27T13:15:59.177Z,71.25
2017-09-27T13:18:27.069Z,71.43
2017-09-27T13:20:54.704Z,71.04
2017-09-27T13:23:22.331Z,70.99
2017-09-27T13:25:50.293Z,70.31
2017-09-27T13:28:17.912Z,70.46
2017-09-27T13:30:45.518Z,70.25
2017-09-27T13:33:13.291Z,70.66
2017-09-27T13:35:40.885Z,70.52
2017-09-27T13:38:08.477Z,69.92
2017-09-27T13:40:36.104Z,69.61
2017-09-27T13:43:03.686Z,69.75
2017-09-27T13:45:31.346Z,69.77
2017-09-27T13:47:59.228Z,69.78
2017-09-27T13:50:26.837Z,69.05
2017-09-27T13:52:54.488Z,69.40
2017-09-27T13:55:22.071Z,69.12
2017-09-27T13:57:50.348Z,68.82
2017-09-27T14:00:18.263Z,68.97
2017-09-27T14:02:46.145Z,69.33
2017-09-27T14:05:13.766Z,69.10
2017-09-27T14:07:41.665Z,69.50
2017-09-27T14:10:09.297Z,69.48
2017-09-27T14:12:36.902Z,70.00
2017-09-27T14:15:04.485Z,69.52
2017-09-27T14:17:32.108Z,69.69
2017-09-27T14:19:59.704Z,69.16
2017-09-27T14:22:27.350Z,69.05
2017-09-27T14:24:54.942Z,69.55
2017-09-27T14:27:22.540Z,69.48
2017-09-27T14:29:50.163Z,69.88
2017-09-27T14:32:18.106Z,70.06
2017-09-27T14:34:45.708Z,69.41
2017-09-27T14:37:13.616Z,69.29
2017-09-27T14:39:41.207Z,69.21
2017-09-27T14:42:08.818Z,69.09
2017-09-27T14:44:36.468Z,69.55
2017-09-27T14:47:04.070Z,69.44
2017-09-27T14:49:31.669Z,69.70
2017-09-27T14:51:59.292Z,69.01
2017-09-27T14:54:26.882Z,68.65
2017-09-27T14:56:54.534Z,68.72
2017-09-27T14:59:22.141Z,69.02
2017-09-27T15:01:49.749Z,68.70
2017-09-27T15:04:17.386Z,69.11
2017-09-27T15:06:44.989Z,69.32
2017-09-27T15:09:12.631Z,69.07
2017-09-27T15:11:40.235Z,68.65
2017-09-27T15:14:07.833Z,68.83
2017-09-27T15:16:35.493Z,69.20
2017-09-27T15:19:03.080Z,69.58
2017-09-27T15:21:30.762Z,70.16
2017-09-27T15:23:58.349Z,69.62
2017-09-27T15:26:26.270Z,69.68
2017-09-27T15:28:53.895Z,69.83
2017-09-27T15:31:21.497Z,69.18
2017-09-27T15:33:49.169Z,69.26
2017-09-27T15:36:16.754Z,68.83
2017-09-27T15:38:44.682Z,68.48
2017-09-27T15:41:12.295Z,68.25
2017-09-27T15:43:39.900Z,68.37
2017-09-27T15:46:07.532Z,68.37
2017-09-27T15:48:35.125Z,68.20
2017-09-27T15:51:02.750Z,68.51
2017-09-27T15:53:30.372Z,68.42
2017-09-27T15:55:57.954Z,68.39
2017-09-27T15:58:25.593Z,68.76
2017-09-27T16:00:53.177Z,68.61
2017-09-27T16:03:21.025Z,68.96
2017-09-27T16:05:48.662Z,68.62
2017-09-27T16:08:16.546Z,67.89
2017-09-27T16:10:44.183Z,67.72
2017-09-27T16:13:11.774Z,67.62
2017-09-27T16:15:39.378Z,67.45
2017-09-27T16:18:07.302Z,67.77
2017-09-27T16:20:34.954Z,67.61
2017-09-27T16:23:02.587Z,68.43
2017-09-27T16:25:30.197Z,68.81
2017-09-27T16:27:57.809Z,68.87
2017-09-27T16:30:25.431Z,69.32
2017-09-27T16:32:53.373Z,69.59
2017-09-27T16:35:21.342Z,69.81
2017-09-27T16:37:48.943Z,70.03
2017-09-27T16:40:16.546Z,70.37
2017-09-27T16:42:44.172Z,70.68
2017-09-27T16:45:12.109Z,70.75
2017-09-27T16:47:39.753Z,70.76
2017-09-27T16:50:07.333Z,70.81
2017-09-27T16:52:34.927Z,71.28
2017-09-27T16:55:02.859Z,71.25
2017-09-27T17:00:04.225Z,71.05
2017-09-27T17:02:31.812Z,71.26
2017-09-27T17:04:59.413Z,71.40
2017-09-27T17:07:27.042Z,71.12
2017-09-27T17:09:54.636Z,71.26
2017-09-27T17:12:22.290Z,71.45
2017-09-27T17:14:49.880Z,71.28
2017-09-27T17:17:17.455Z,71.26
2017-09-27T17:19:45.100Z,70.88
2017-09-27T17:22:12.728Z,70.58
2017-09-27T17:24:40.349Z,70.34
2017-09-27T17:27:07.982Z,70.42
2017-09-27T17:29:35.593Z,70.06
2017-09-27T17:32:03.533Z,70.26
2017-09-27T17:34:31.403Z,70.20
2017-09-27T17:36:59.049Z,69.88
2017-09-27T17:39:26.670Z,70.26
2017-09-27T17:41:54.285Z,70.41
2017-09-27T17:44:21.936Z,70.42
2017-09-27T17:46:49.531Z,70.30
2017-09-27T17:49:17.487Z,70.68
2017-09-27T17:51:45.118Z,70.98
2017-09-27T17:54:13.035Z,70.80
2017-09-27T17:56:41.565Z,70.64
2017-09-27T17:59:09.166Z,70.55
2017-09-27T18:01:37.125Z,71.13
2017-09-27T18:04:07.604Z,71.11
2017-09-27T18:06:40.893Z,70.94
2017-09-27T18:09:17.077Z,70.73
2017-09-27T18:11:50.181Z,70.83
2017-09-27T18:14:23.391Z,70.67
2017-09-27T18:16:55.626Z,70.54
2017-09-27T18:19:23.241Z,71.00
2017-09-27T18:21:50.843Z,70.94
2017-09-27T18:24:18.564Z,71.10
2017-09-27T18:26:46.185Z,71.43
2017-09-27T18:29:13.818Z,71.27
2017-09-27T18:31:41.429Z,71.61
2017-09-27T18:34:09.054Z,71.51
2017-09-27T18:36:36.684Z,71.71
2017-09-27T18:39:04.285Z,71.39
2017-09-27T18:41:31.935Z,70.94
2017-09-27T18:44:02.900Z,71.05
2017-09-27T18:46:30.877Z,71.36
2017-09-27T18:48:58.514Z,70.91
2017-09-27T18:51:26.104Z,70.89
2017-09-27T18:53:53.999Z,70.84
2017-09-27T18:56:21.967Z,70.85
2017-09-27T18:58:49.566Z,70.83
2017-09-27T19:01:17.192Z,70.58
2017-09-27T19:03:44.789Z,70.85
2017-09-27T19:06:12.446Z,71.09
2017-09-27T19:08:40.068Z,71.35
2017-09-27T19:11:07.681Z,71.14
2017-09-27T19:13:35.344Z,70.74
2017-09-27T19:16:03.016Z,70.83
2017-09-27T19:18:30.693Z,70.93
2017-09-27T19:20:58.709Z,70.73
2017-09-27T19:23:26.298Z,70.41
2017-09-27T19:25:53.987Z,70.59
2017-09-27T19:28:21.695Z,70.82
2017-09-27T19:30:49.329Z,71.16
2017-09-27T19:33:16.924Z,71.44
2017-09-27T19:35:44.518Z,71.57
2017-09-27T19:38:12.154Z,71.77
2017-09-27T19:40:40.010Z,71.73
2017-09-27T19:43:07.672Z,71.75
2017-09-27T19:45:35.644Z,71.47
2017-09-27T19:48:03.262Z,71.90
2017-09-27T19:50:30.887Z,71.93
2017-09-27T19:52:58.508Z,71.87
2017-09-27T19:55:26.172Z,71.88
2017-09-27T19:57:53.769Z,72.05
2017-09-27T20:00:21.730Z,72.08
2017-09-27T20:02:49.390Z,72.05
2017-09-27T20:05:17.016Z,72.02
2017-09-27T20:07:44.704Z,72.40
2017-09-27T20:10:12.313Z,72.20
2017-09-27T20:12:39.926Z,72.39
2017-09-27T20:15:07.557Z,72.42
2017-09-27T20:17:35.158Z,72.80
2017-09-27T20:20:02.804Z,72.89
2017-09-27T20:22:30.694Z,72.99
2017-09-27T20:24:58.358Z,73.09
2017-09-27T20:27:25.999Z,73.25
2017-09-27T20:29:53.645Z,73.17
2017-09-27T20:32:21.274Z,73.19
2017-09-27T20:34:48.914Z,73.17
2017-09-27T20:37:16.513Z,73.03
2017-09-27T20:39:44.154Z,72.88
2017-09-27T20:42:11.796Z,73.10
2017-09-27T20:44:39.652Z,73.27
2017-09-27T20:47:07.260Z,73.17
2017-09-27T20:49:34.873Z,73.43
2017-09-27T20:52:02.497Z,73.20
2017-09-27T20:54:30.115Z,73.40
2017-09-27T20:56:57.964Z,73.37
2017-09-27T20:59:25.936Z,73.39
2017-09-27T21:01:53.516Z,73.42
2017-09-27T21:04:21.118Z,73.60
2017-09-27T21:06:48.754Z,73.76
2017-09-27T21:09:16.695Z,73.67
2017-09-27T21:11:44.277Z,73.48
2017-09-27T21:14:12.005Z,73.69
2017-09-27T21:16:39.681Z,73.59
2017-09-27T21:19:07.331Z,73.54
2017-09-27T21:21:34.926Z,73.66
2017-09-27T21:24:03.217Z,73.83
2017-09-27T21:26:32.098Z,73.69
2017-09-27T21:28:59.728Z,73.87
2017-09-27T21:31:27.377Z,73.92
2017-09-27T21:33:55.011Z,74.10
2017-09-27T21:36:22.622Z,74.03
2017-09-27T21:38:50.244Z,74.41
2017-09-27T21:41:18.157Z,74.47
2017-09-27T21:43:46.336Z,74.35
2017-09-27T21:46:14.201Z,74.19
2017-09-27T21:48:41.866Z,74.26
2017-09-27T21:51:09.483Z,74.36
2017-09-27T21:53:37.081Z,74.49
2017-09-27T21:56:04.738Z,74.44
2017-09-27T21:58:32.485Z,74.57
2017-09-27T22:01:00.070Z,74.48
2017-09-27T22:03:27.706Z,74.62
2017-09-27T22:05:55.303Z,74.55
2017-09-27T22:08:22.946Z,74.35
2017-09-27T22:10:50.532Z,74.64
2017-09-27T22:13:18.139Z,74.61
2017-09-27T22:15:45.774Z,74.84
2017-09-27T22:18:13.356Z,74.69
2017-09-27T22:20:41.004Z,74.54
2017-09-27T22:23:08.602Z,74.63
2017-09-27T22:25:36.192Z,74.98
2017-09-27T22:28:22.105Z,74.68
2017-09-27T22:30:50.891Z,74.89
2017-09-27T22:33:18.522Z,74.50
2017-09-27T22:35:46.166Z,74.87
2017-09-27T22:38:13.770Z,74.86
2017-09-27T22:40:41.388Z,74.98
2017-09-27T22:43:09.287Z,74.95
2017-09-27T22:45:37.268Z,74.96
2017-09-27T22:48:04.880Z,74.83
2017-09-27T22:50:32.476Z,75.31
2017-09-27T22:53:00.105Z,75.12
2017-09-27T22:55:27.701Z,75.21
2017-09-27T22:57:55.676Z,75.52
2017-09-27T23:00:23.289Z,75.34
2017-09-27T23:02:50.894Z,75.43
2017-09-27T23:05:18.509Z,75.54
2017-09-27T23:07:46.178Z,75.11
2017-09-27T23:10:14.657Z,75.14
2017-09-27T23:12:42.248Z,75.20
2017-09-27T23:15:09.875Z,75.12
2017-09-27T23:17:37.750Z,75.02
2017-09-27T23:20:05.454Z,74.99
2017-09-27T23:22:36.957Z,75.27
2017-09-27T23:25:04.895Z,75.41
2017-09-27T23:27:32.555Z,75.29
2017-09-27T23:30:00.432Z,75.23
2017-09-27T23:32:28.033Z,75.24
2017-09-27T23:34:55.675Z,75.19
2017-09-27T23:37:23.261Z,75.48
2017-09-27T23:39:50.893Z,74.99
2017-09-27T23:42:18.520Z,74.82
2017-09-27T23:44:46.403Z,74.95
2017-09-27T23:47:14.034Z,75.26
2017-09-27T23:49:41.656Z,75.07
2017-09-27T23:52:09.244Z,75.04
2017-09-27T23:54:36.866Z,74.97
2017-09-27T23:57:04.444Z,74.73
2017-09-27T23:59:32.093Z,75.05
